Time;durP1;ratioP1;P1;durP2;ratioP2;P2;SDS_P1;SDS_P2;PMS_P1;PMS_P2;Temp;Humidity;BMP_temperature;BMP_pressure;BME280_temperature;BME280_humidity;BME280_pressure;Samples;Min_cycle;Max_cycle;Signal;HPM_P1;HPM_P2
2022/11/10 00:02:03;;;;;;;16.88;14.18;;;8.40;99.90;;;;;;5082748;28;20183;-73
2022/11/10 00:04:29;;;;;;;19.42;14.15;;;8.30;99.90;;;;;;5092319;28;20171;-74
2022/11/10 00:06:54;;;;;;;16.42;13.95;;;8.30;99.90;;;;;;5082196;28;20183;-74
2022/11/10 00:09:20;;;;;;;22.40;15.50;;;8.20;99.90;;;;;;5085478;28;20202;-74
2022/11/10 00:11:45;;;;;;;15.95;14.20;;;8.10;99.90;;;;;;5080791;28;20175;-74
2022/11/10 00:17:03;;;;;;;14.32;11.75;;;8.20;99.90;;;;;;5072671;28;20234;-74
2022/11/10 00:19:33;;;;;;;15.75;14.05;;;8.30;99.90;;;;;;5077861;28;21453;-74
2022/11/10 00:22:00;;;;;;;17.80;13.45;;;8.30;99.90;;;;;;5086756;28;20182;-74
2022/11/10 00:24:26;;;;;;;17.52;13.82;;;8.30;99.90;;;;;;5075228;28;20669;-74
2022/11/10 00:26:53;;;;;;;17.27;14.32;;;8.40;99.90;;;;;;5085341;28;20255;-74
2022/11/10 00:29:18;;;;;;;17.42;13.23;;;8.30;99.90;;;;;;5085151;28;20221;-73
2022/11/10 00:31:44;;;;;;;15.63;13.95;;;8.20;99.90;;;;;;5087196;28;20170;-73
2022/11/10 00:34:13;;;;;;;16.95;14.45;;;8.20;99.90;;;;;;5076998;28;20244;-74
2022/11/10 00:36:39;;;;;;;17.45;14.30;;;8.30;99.90;;;;;;5070981;28;20690;-74
2022/11/10 00:39:04;;;;;;;16.88;13.57;;;8.30;99.90;;;;;;5065200;28;20270;-74
2022/11/10 00:41:30;;;;;;;18.38;13.65;;;8.40;99.90;;;;;;5071025;28;20175;-74
2022/11/10 00:43:55;;;;;;;16.08;12.60;;;8.40;99.90;;;;;;5084944;28;20254;-73
2022/11/10 00:46:21;;;;;;;15.40;13.65;;;8.40;99.90;;;;;;5066800;28;20253;-73
2022/11/10 00:48:47;;;;;;;15.85;13.02;;;8.40;99.90;;;;;;5059824;28;20207;-74
2022/11/10 00:51:25;;;;;;;17.92;14.02;;;8.50;99.90;;;;;;5062320;28;20258;-74
2022/11/10 00:53:51;;;;;;;16.70;14.73;;;8.40;99.90;;;;;;5069305;28;20182;-74
2022/11/10 00:56:17;;;;;;;16.17;14.45;;;8.30;99.90;;;;;;5075479;28;20183;-74
2022/11/10 00:58:43;;;;;;;14.43;12.73;;;8.30;99.90;;;;;;5066696;28;20203;-73
2022/11/10 01:01:09;;;;;;;19.23;14.05;;;8.30;99.90;;;;;;5073149;28;20190;-73
2022/11/10 01:03:35;;;;;;;18.92;13.98;;;8.30;99.90;;;;;;5084859;28;20174;-73
2022/11/10 01:06:13;;;;;;;16.38;14.35;;;8.30;99.90;;;;;;5086320;28;20181;-73
2022/11/10 01:08:39;;;;;;;18.63;14.48;;;8.30;99.90;;;;;;5082575;28;20725;-73
2022/11/10 01:11:23;;;;;;;16.20;12.82;;;8.10;99.90;;;;;;5086566;28;20195;-74
2022/11/10 01:13:50;;;;;;;14.75;12.68;;;8.20;99.90;;;;;;5084099;28;20173;-73
2022/11/10 01:16:25;;;;;;;16.60;14.43;;;8.30;99.90;;;;;;5078801;28;20232;-73
2022/11/10 01:18:59;;;;;;;14.82;12.98;;;8.30;99.90;;;;;;5077969;28;20262;-73
2022/11/10 01:21:25;;;;;;;18.67;13.93;;;8.30;99.90;;;;;;5092807;28;20190;-73
2022/11/10 01:23:51;;;;;;;17.25;13.80;;;8.30;99.90;;;;;;5084826;28;20194;-73
2022/11/10 01:26:17;;;;;;;16.35;13.60;;;8.30;99.90;;;;;;5078384;28;20187;-73
2022/11/10 01:28:43;;;;;;;18.25;13.55;;;8.20;99.90;;;;;;5085762;28;20194;-73
2022/11/10 01:31:20;;;;;;;17.30;14.40;;;8.30;99.90;;;;;;5085122;28;20554;-74
2022/11/10 01:33:45;;;;;;;17.38;13.50;;;8.20;99.90;;;;;;5063126;28;20179;-73
2022/11/10 01:36:11;;;;;;;14.02;12.32;;;8.20;99.90;;;;;;5074308;28;20287;-73
2022/11/10 01:38:39;;;;;;;16.98;14.07;;;8.30;99.90;;;;;;5074397;28;20199;-73
2022/11/10 01:41:06;;;;;;;15.52;13.32;;;8.30;99.90;;;;;;5076525;28;20589;-73
2022/11/10 01:43:32;;;;;;;17.35;12.65;;;8.20;99.90;;;;;;5090415;28;20228;-73
2022/11/10 01:45:58;;;;;;;16.70;14.57;;;8.30;99.90;;;;;;5082961;28;20251;-73
2022/11/10 01:48:44;;;;;;;15.60;13.32;;;8.30;99.90;;;;;;5078123;28;20712;-73
2022/11/10 01:51:33;;;;;;;14.98;12.82;;;8.30;99.90;;;;;;5091608;28;20175;-73
2022/11/10 01:54:05;;;;;;;13.93;11.80;;;8.30;99.90;;;;;;5080828;28;20174;-73
2022/11/10 01:56:35;;;;;;;15.73;13.77;;;8.30;99.90;;;;;;5091590;28;20167;-73
2022/11/10 01:59:07;;;;;;;18.63;13.82;;;8.30;99.90;;;;;;5082810;28;20202;-73
2022/11/10 02:01:32;;;;;;;15.15;12.95;;;8.20;99.90;;;;;;5078964;28;20179;-73
2022/11/10 02:04:01;;;;;;;17.85;13.32;;;8.30;99.90;;;;;;5070497;28;20186;-73
2022/11/10 02:06:29;;;;;;;15.05;11.88;;;8.30;99.90;;;;;;5083298;28;20703;-73
2022/11/10 02:08:56;;;;;;;16.30;13.02;;;8.30;99.90;;;;;;5079456;28;20658;-73
2022/11/10 02:11:22;;;;;;;17.08;13.63;;;8.30;99.90;;;;;;5083385;28;20167;-73
2022/11/10 02:13:49;;;;;;;14.90;12.70;;;8.20;99.90;;;;;;5085915;28;20170;-73
2022/11/10 02:16:14;;;;;;;18.05;13.65;;;8.20;99.90;;;;;;5085785;28;20186;-73
2022/11/10 02:18:40;;;;;;;17.13;13.73;;;8.30;99.90;;;;;;5085391;28;20203;-73
2022/11/10 02:21:07;;;;;;;17.15;14.13;;;8.30;99.90;;;;;;5083312;28;20233;-73
2022/11/10 02:23:36;;;;;;;17.15;13.38;;;8.30;99.90;;;;;;5082631;28;20179;-73
2022/11/10 02:26:04;;;;;;;20.52;15.13;;;8.30;99.90;;;;;;5086774;28;20241;-73
2022/11/10 02:28:35;;;;;;;16.80;13.10;;;8.30;99.90;;;;;;5086744;28;20252;-73
2022/11/10 02:31:02;;;;;;;18.02;13.82;;;8.30;99.90;;;;;;5086311;28;20220;-72
2022/11/10 02:33:28;;;;;;;16.27;14.55;;;8.20;99.90;;;;;;5086440;28;20170;-72
2022/11/10 02:35:53;;;;;;;19.73;14.68;;;8.30;99.90;;;;;;5081283;28;20540;-73
2022/11/10 02:38:19;;;;;;;16.38;13.45;;;8.20;99.90;;;;;;5072137;28;20230;-73
2022/11/10 02:40:45;;;;;;;19.73;14.75;;;8.20;99.90;;;;;;5072752;28;20209;-73
2022/11/10 02:43:14;;;;;;;17.90;14.60;;;8.10;99.90;;;;;;5070632;28;20237;-73
2022/11/10 02:45:46;;;;;;;17.13;14.10;;;8.10;99.90;;;;;;5074206;28;20195;-73
2022/11/10 02:48:14;;;;;;;16.92;13.63;;;8.20;99.90;;;;;;5069400;28;20226;-73
2022/11/10 02:50:40;;;;;;;17.80;13.40;;;8.20;99.90;;;;;;5069302;28;20587;-73
2022/11/10 02:53:06;;;;;;;16.27;13.93;;;8.20;99.90;;;;;;5071412;28;20176;-73
2022/11/10 02:55:32;;;;;;;17.60;13.68;;;8.20;99.90;;;;;;5080238;28;20672;-74
2022/11/10 02:57:57;;;;;;;19.08;14.65;;;8.30;99.90;;;;;;5081453;28;20203;-73
2022/11/10 03:00:24;;;;;;;20.33;14.63;;;8.40;99.90;;;;;;5078132;28;20178;-74
2022/11/10 03:02:56;;;;;;;19.42;15.63;;;8.20;99.90;;;;;;5076039;28;20206;-74
2022/11/10 03:05:22;;;;;;;18.90;14.98;;;8.10;99.90;;;;;;5084641;28;20216;-73
2022/11/10 03:07:55;;;;;;;20.52;16.38;;;8.10;99.90;;;;;;5077737;28;20211;-73
2022/11/10 03:10:21;;;;;;;22.77;15.88;;;8.00;99.90;;;;;;5083244;28;20261;-73
2022/11/10 03:12:47;;;;;;;22.85;15.88;;;8.10;99.90;;;;;;5074645;28;20192;-73
2022/11/10 03:15:13;;;;;;;21.75;17.08;;;8.00;99.90;;;;;;5082796;28;20179;-73
2022/11/10 03:17:40;;;;;;;22.02;16.50;;;8.00;99.90;;;;;;5084786;28;20195;-73
2022/11/10 03:20:06;;;;;;;18.52;15.18;;;8.20;99.90;;;;;;5070422;28;20211;-73
2022/11/10 03:22:31;;;;;;;18.52;15.13;;;8.20;99.90;;;;;;5083787;28;20206;-73
2022/11/10 03:24:57;;;;;;;17.75;13.35;;;8.20;99.90;;;;;;5082067;28;20262;-73
2022/11/10 03:27:23;;;;;;;18.45;13.60;;;8.20;99.90;;;;;;5076308;28;20247;-73
2022/11/10 03:29:48;;;;;;;21.38;14.30;;;8.30;99.90;;;;;;5088644;28;20174;-73
2022/11/10 03:32:14;;;;;;;18.80;14.20;;;8.30;99.90;;;;;;5082799;28;20691;-73
2022/11/10 03:34:39;;;;;;;18.98;15.20;;;8.30;99.90;;;;;;5087349;28;20166;-73
2022/11/10 03:37:05;;;;;;;20.45;15.20;;;8.30;99.90;;;;;;5083917;28;20274;-73
2022/11/10 03:39:31;;;;;;;18.48;15.38;;;8.30;99.90;;;;;;5082736;28;20170;-73
2022/11/10 03:41:56;;;;;;;21.85;15.10;;;8.20;99.90;;;;;;5085196;28;20232;-74
2022/11/10 03:44:22;;;;;;;18.80;13.75;;;8.10;99.90;;;;;;5086218;28;20645;-74
2022/11/10 03:46:47;;;;;;;19.20;14.68;;;8.10;99.90;;;;;;5084039;28;20202;-74
2022/11/10 03:49:13;;;;;;;18.63;13.35;;;8.20;99.90;;;;;;5086146;28;20260;-74
2022/11/10 03:51:38;;;;;;;22.48;14.43;;;8.30;99.90;;;;;;5083017;28;20262;-74
2022/11/10 03:54:04;;;;;;;25.88;16.30;;;8.30;99.90;;;;;;5082090;28;20227;-73
2022/11/10 03:56:30;;;;;;;23.48;15.75;;;8.30;99.90;;;;;;5074942;28;20178;-74
2022/11/10 03:58:56;;;;;;;22.73;16.25;;;8.20;99.90;;;;;;5086034;28;20198;-74
2022/11/10 04:01:22;;;;;;;22.48;14.88;;;8.10;99.90;;;;;;5082770;28;20244;-74
2022/11/10 04:03:48;;;;;;;24.50;15.20;;;8.20;99.90;;;;;;5071030;28;20219;-73
2022/11/10 04:08:58;;;;;;;22.85;13.90;;;8.10;99.90;;;;;;5067431;28;20201;-73
2022/11/10 04:16:53;;;;;;;22.25;14.95;;;8.20;99.90;;;;;;5067791;28;20267;-74
2022/11/10 04:19:19;;;;;;;21.25;14.75;;;8.20;99.90;;;;;;5080250;28;20221;-73
2022/11/10 04:21:44;;;;;;;26.58;15.65;;;8.10;99.90;;;;;;5089398;28;20212;-74
2022/11/10 04:24:10;;;;;;;22.27;14.20;;;8.00;99.90;;;;;;5071069;28;20187;-73
2022/11/10 04:26:39;;;;;;;22.88;15.10;;;8.10;99.90;;;;;;5073824;28;20186;-74
2022/11/10 04:29:07;;;;;;;25.05;16.55;;;8.10;99.90;;;;;;5071219;28;20194;-73
2022/11/10 04:31:36;;;;;;;24.92;16.05;;;8.10;99.90;;;;;;5077411;28;20232;-73
2022/11/10 04:34:03;;;;;;;25.88;16.75;;;8.10;99.90;;;;;;5080224;28;20175;-73
2022/11/10 04:36:30;;;;;;;20.85;15.25;;;8.10;99.90;;;;;;5071404;28;20172;-72
2022/11/10 04:38:56;;;;;;;23.13;16.55;;;8.10;99.90;;;;;;5069376;28;20881;-73
2022/11/10 04:41:27;;;;;;;26.08;15.32;;;8.20;99.90;;;;;;5077804;28;20204;-73
2022/11/10 04:43:52;;;;;;;23.10;14.95;;;8.20;99.90;;;;;;5078708;28;20183;-73
2022/11/10 04:46:26;;;;;;;27.10;15.68;;;8.10;99.90;;;;;;5075186;28;20558;-72
2022/11/10 04:48:53;;;;;;;23.45;15.73;;;8.10;99.90;;;;;;5067352;28;20281;-72
2022/11/10 04:51:24;;;;;;;24.45;14.60;;;8.10;99.90;;;;;;5064968;28;20246;-72
2022/11/10 04:53:50;;;;;;;29.23;16.80;;;8.20;99.90;;;;;;5071986;28;20641;-73
2022/11/10 04:56:17;;;;;;;22.70;15.05;;;8.20;99.90;;;;;;5075809;28;20194;-73
2022/11/10 04:58:44;;;;;;;27.52;16.75;;;8.30;99.90;;;;;;5080276;28;20670;-73
2022/11/10 05:01:14;;;;;;;26.40;16.85;;;8.30;99.90;;;;;;5073793;28;20277;-73
2022/11/10 05:03:41;;;;;;;26.00;15.73;;;8.20;99.90;;;;;;5052947;28;20251;-73
2022/11/10 05:06:07;;;;;;;28.33;16.10;;;8.20;99.90;;;;;;5056459;28;20210;-73
2022/11/10 05:08:32;;;;;;;22.15;15.00;;;8.10;99.90;;;;;;5056716;28;20246;-73
2022/11/10 05:10:58;;;;;;;29.58;16.25;;;8.10;99.90;;;;;;5055919;28;20180;-72
2022/11/10 05:13:24;;;;;;;24.45;14.70;;;8.10;99.90;;;;;;5053656;28;20233;-72
2022/11/10 05:15:51;;;;;;;19.75;13.43;;;8.10;99.90;;;;;;5051824;28;21088;-73
2022/11/10 05:18:17;;;;;;;26.83;16.15;;;8.10;99.90;;;;;;5052206;28;20204;-73
2022/11/10 05:20:42;;;;;;;21.40;14.52;;;8.20;99.90;;;;;;5061599;28;20187;-73
2022/11/10 05:25:52;;;;;;;35.53;16.23;;;8.10;99.90;;;;;;5081008;28;20186;-73
2022/11/10 05:28:18;;;;;;;19.00;13.57;;;8.10;99.90;;;;;;5079818;28;20207;-73
2022/11/10 05:30:44;;;;;;;48.92;17.50;;;8.10;99.90;;;;;;5078777;28;20202;-73
2022/11/10 05:33:09;;;;;;;86.53;20.15;;;8.10;99.90;;;;;;5076896;28;20187;-73
2022/11/10 05:35:36;;;;;;;40.20;17.48;;;8.00;99.90;;;;;;5069488;28;20179;-72
2022/11/10 05:38:01;;;;;;;33.08;15.52;;;8.00;99.90;;;;;;5071633;28;20203;-72
2022/11/10 05:40:27;;;;;;;18.92;14.05;;;8.10;99.90;;;;;;5072898;28;20183;-73
2022/11/10 05:42:53;;;;;;;31.52;16.33;;;8.10;99.90;;;;;;5074752;28;20650;-73
2022/11/10 05:45:24;;;;;;;45.92;16.95;;;8.20;99.90;;;;;;5073820;28;20205;-73
2022/11/10 05:47:50;;;;;;;17.48;13.55;;;8.20;99.90;;;;;;5078266;28;20214;-73
2022/11/10 05:50:17;;;;;;;22.00;13.93;;;8.20;99.90;;;;;;5082851;28;20254;-73
2022/11/10 05:52:45;;;;;;;44.38;16.17;;;8.20;99.90;;;;;;5079056;28;20168;-73
2022/11/10 05:55:12;;;;;;;88.30;18.45;;;8.20;99.90;;;;;;5082401;28;20171;-73
2022/11/10 05:57:37;;;;;;;51.00;15.50;;;8.20;99.90;;;;;;5081744;28;20202;-73
2022/11/10 06:00:05;;;;;;;29.33;15.57;;;8.10;99.90;;;;;;5083642;28;20171;-73
2022/11/10 06:02:31;;;;;;;19.10;12.43;;;8.10;99.90;;;;;;5079352;28;20182;-73
2022/11/10 06:04:56;;;;;;;121.03;21.23;;;8.10;99.90;;;;;;5079249;28;20205;-73
2022/11/10 06:07:22;;;;;;;21.88;14.07;;;8.00;99.90;;;;;;5083351;28;20202;-73
2022/11/10 06:09:47;;;;;;;91.13;18.90;;;8.10;99.90;;;;;;5078840;28;20203;-73
2022/11/10 06:12:14;;;;;;;18.98;13.88;;;8.10;99.90;;;;;;5077488;28;20176;-73
2022/11/10 06:14:39;;;;;;;36.50;15.05;;;8.10;99.90;;;;;;5074393;28;20540;-73
2022/11/10 06:17:05;;;;;;;58.80;16.92;;;8.20;99.90;;;;;;5083368;28;20187;-73
2022/11/10 06:19:30;;;;;;;22.70;14.98;;;8.10;99.90;;;;;;5075778;28;20268;-73
2022/11/10 06:21:56;;;;;;;36.55;16.58;;;8.10;99.90;;;;;;5083603;28;20190;-73
2022/11/10 06:24:22;;;;;;;30.40;14.90;;;8.20;99.90;;;;;;5093092;28;20178;-73
2022/11/10 06:26:47;;;;;;;61.42;15.00;;;8.20;99.90;;;;;;5085498;28;20259;-73
2022/11/10 06:29:13;;;;;;;65.07;15.32;;;8.30;99.90;;;;;;5087978;28;20217;-73
2022/11/10 06:31:38;;;;;;;15.73;12.25;;;8.20;99.90;;;;;;5079846;28;20172;-73
2022/11/10 06:34:04;;;;;;;43.28;14.38;;;8.10;99.90;;;;;;5085722;28;20185;-73
2022/11/10 06:36:30;;;;;;;74.53;16.50;;;8.20;99.90;;;;;;5086779;28;20541;-74
2022/11/10 06:38:55;;;;;;;43.05;13.48;;;8.20;99.90;;;;;;5073370;28;20242;-73
2022/11/10 06:41:21;;;;;;;22.83;12.65;;;8.20;99.90;;;;;;5072810;28;20187;-73
2022/11/10 06:43:46;;;;;;;41.47;13.13;;;8.30;99.90;;;;;;5068676;28;20242;-73
2022/11/10 06:46:12;;;;;;;72.13;14.05;;;8.10;99.90;;;;;;5071486;28;20744;-75
2022/11/10 06:48:39;;;;;;;79.28;14.82;;;8.00;99.90;;;;;;5073483;28;20202;-77
2022/11/10 06:51:05;;;;;;;35.80;13.43;;;7.90;99.90;;;;;;5082985;28;20645;-75
2022/11/10 06:53:30;;;;;;;25.88;11.38;;;7.90;99.90;;;;;;5078221;28;20186;-75
2022/11/10 06:55:56;;;;;;;31.58;12.63;;;8.00;99.90;;;;;;5072233;28;20187;-76
2022/11/10 06:58:22;;;;;;;75.43;15.13;;;8.00;99.90;;;;;;5086360;28;20680;-76
2022/11/10 07:00:47;;;;;;;24.88;11.65;;;8.10;99.90;;;;;;5081799;28;20176;-74
2022/11/10 07:03:14;;;;;;;30.85;13.27;;;8.20;99.90;;;;;;5086307;28;20186;-75
2022/11/10 07:05:40;;;;;;;26.80;12.05;;;8.20;99.90;;;;;;5084485;28;20638;-76
2022/11/10 07:08:09;;;;;;;24.85;11.70;;;8.20;99.90;;;;;;5088669;28;20246;-75
2022/11/10 07:10:35;;;;;;;13.63;11.52;;;8.20;99.90;;;;;;5077651;28;20595;-75
2022/11/10 07:13:03;;;;;;;32.15;13.77;;;8.30;99.90;;;;;;5073016;28;20787;-75
2022/11/10 07:15:29;;;;;;;22.83;13.10;;;8.30;99.90;;;;;;5079867;28;20181;-75
2022/11/10 07:17:55;;;;;;;22.63;11.25;;;8.30;99.90;;;;;;5083195;28;20324;-76
2022/11/10 07:20:20;;;;;;;22.10;10.98;;;8.30;99.90;;;;;;5077750;28;20202;-75
2022/11/10 07:22:46;;;;;;;13.23;10.93;;;8.20;99.90;;;;;;5081538;28;20174;-75
2022/11/10 07:25:12;;;;;;;16.40;10.57;;;8.20;99.90;;;;;;5084233;28;20258;-76
2022/11/10 07:27:37;;;;;;;12.35;10.90;;;8.30;99.90;;;;;;5080548;28;20726;-75
2022/11/10 07:30:07;;;;;;;16.38;10.50;;;8.30;99.90;;;;;;5075879;28;20199;-76
2022/11/10 07:32:32;;;;;;;11.10;9.90;;;8.40;99.90;;;;;;5088387;28;20506;-75
2022/11/10 07:34:58;;;;;;;18.50;10.48;;;8.50;99.90;;;;;;5072871;28;20179;-75
2022/11/10 07:37:23;;;;;;;25.73;10.13;;;8.50;99.90;;;;;;5072670;28;20191;-75
2022/11/10 07:39:49;;;;;;;12.10;8.93;;;8.60;99.90;;;;;;5062321;28;20720;-75
2022/11/10 07:42:15;;;;;;;10.50;9.38;;;8.60;99.90;;;;;;5074613;28;20195;-74
2022/11/10 07:44:40;;;;;;;11.80;8.52;;;8.70;99.90;;;;;;5062040;28;20262;-75
2022/11/10 07:47:06;;;;;;;8.70;7.80;;;8.70;99.90;;;;;;5071251;28;20203;-74
2022/11/10 07:49:32;;;;;;;14.65;9.80;;;8.80;99.90;;;;;;5070601;28;20194;-74
2022/11/10 07:51:57;;;;;;;9.30;8.50;;;9.00;99.90;;;;;;5064928;28;20187;-73
2022/11/10 07:54:23;;;;;;;12.85;9.60;;;9.00;99.90;;;;;;5065554;28;20183;-74
2022/11/10 07:56:48;;;;;;;13.93;9.20;;;9.10;99.90;;;;;;5069536;28;20318;-74
2022/11/10 07:59:14;;;;;;;15.93;10.10;;;9.00;99.90;;;;;;5067481;28;20179;-74
2022/11/10 08:01:39;;;;;;;14.60;9.05;;;9.30;99.90;;;;;;5067621;28;20284;-74
2022/11/10 08:04:05;;;;;;;9.50;8.40;;;9.40;99.90;;;;;;5077010;28;20180;-74
2022/11/10 08:06:31;;;;;;;13.77;7.47;;;9.30;99.90;;;;;;5061816;28;20187;-74
2022/11/10 08:08:57;;;;;;;9.10;8.07;;;9.20;99.90;;;;;;5066199;28;20246;-75
2022/11/10 08:11:23;;;;;;;21.42;10.68;;;9.40;99.90;;;;;;5086537;28;20202;-75
2022/11/10 08:13:48;;;;;;;10.05;8.98;;;9.60;99.90;;;;;;5070377;28;20174;-74
2022/11/10 08:16:14;;;;;;;10.75;8.73;;;9.70;99.90;;;;;;5084481;28;20179;-75
2022/11/10 08:18:39;;;;;;;12.13;8.15;;;9.70;99.90;;;;;;5080728;28;20278;-74
2022/11/10 08:21:05;;;;;;;8.93;7.88;;;9.70;99.90;;;;;;5071310;28;20649;-74
2022/11/10 08:23:32;;;;;;;8.80;8.00;;;9.90;99.90;;;;;;5083754;28;20182;-75
2022/11/10 08:25:59;;;;;;;8.25;7.45;;;10.20;99.90;;;;;;5081159;28;20206;-74
2022/11/10 08:28:25;;;;;;;8.50;7.70;;;10.40;99.90;;;;;;5072778;28;20730;-75
2022/11/10 08:30:51;;;;;;;8.55;7.50;;;10.70;99.90;;;;;;5070402;28;20269;-74
2022/11/10 08:33:19;;;;;;;7.90;7.22;;;10.80;99.90;;;;;;5086070;28;20182;-74
2022/11/10 08:35:49;;;;;;;8.68;7.78;;;10.90;99.90;;;;;;5071210;28;20516;-74
2022/11/10 08:38:17;;;;;;;8.45;7.60;;;11.10;99.90;;;;;;5071035;28;20195;-74
2022/11/10 08:40:43;;;;;;;12.02;7.90;;;11.50;99.90;;;;;;5082466;28;20205;-74
2022/11/10 08:43:10;;;;;;;8.68;7.90;;;11.60;99.90;;;;;;5076713;28;20175;-74
2022/11/10 08:45:37;;;;;;;8.77;7.97;;;11.70;99.90;;;;;;5080071;28;20561;-74
2022/11/10 08:48:06;;;;;;;9.23;7.43;;;12.00;99.90;;;;;;5068007;28;20298;-74
2022/11/10 08:50:32;;;;;;;6.93;6.35;;;12.20;99.90;;;;;;5073632;28;20182;-74
2022/11/10 08:53:06;;;;;;;7.28;6.68;;;12.10;99.90;;;;;;5074181;28;20536;-74
2022/11/10 08:55:32;;;;;;;7.65;6.90;;;12.40;99.90;;;;;;5064486;28;20567;-74
2022/11/10 08:58:11;;;;;;;;;;;;;;;;;;;;;
2022/11/10 09:00:37;;;;;;;7.20;6.60;;;12.50;99.90;;;;;;5078408;28;20167;-77
2022/11/10 09:03:12;;;;;;;7.28;6.65;;;12.60;99.90;;;;;;5079432;28;20266;-75
2022/11/10 09:05:38;;;;;;;7.45;6.80;;;12.60;99.90;;;;;;5086098;28;20267;-76
2022/11/10 09:08:04;;;;;;;6.75;6.15;;;12.80;99.90;;;;;;5085865;28;20205;-76
2022/11/10 09:10:34;;;;;;;7.07;6.47;;;13.10;99.90;;;;;;5086566;28;20224;-77
2022/11/10 09:13:01;;;;;;;6.20;5.70;;;13.80;99.90;;;;;;5075395;28;20175;-76
2022/11/10 09:15:29;;;;;;;7.45;6.75;;;14.50;99.90;;;;;;5078177;28;20261;-76
2022/11/10 09:18:00;;;;;;;6.65;5.95;;;15.20;99.90;;;;;;5077619;28;20199;-76
2022/11/10 09:20:27;;;;;;;6.03;5.63;;;15.80;99.90;;;;;;5076200;28;20227;-76
2022/11/10 09:22:53;;;;;;;5.90;5.50;;;16.90;99.90;;;;;;5071687;28;20175;-77
2022/11/10 09:25:19;;;;;;;5.40;5.00;;;17.80;99.90;;;;;;5081155;28;20195;-75
2022/11/10 09:27:45;;;;;;;6.07;5.45;;;18.30;99.90;;;;;;5077149;28;20348;-75
2022/11/10 09:30:11;;;;;;;5.75;5.35;;;19.20;99.90;;;;;;5089814;28;20255;-75
2022/11/10 09:32:36;;;;;;;5.25;4.78;;;20.20;99.90;;;;;;5081716;28;20191;-75
2022/11/10 09:35:03;;;;;;;5.95;5.45;;;20.10;99.90;;;;;;5080522;28;20577;-75
2022/11/10 09:37:28;;;;;;;5.68;5.18;;;19.50;99.90;;;;;;5081992;28;20206;-74
2022/11/10 09:39:54;;;;;;;5.45;5.05;;;18.70;99.90;;;;;;5085374;28;20179;-74
2022/11/10 09:42:39;;;;;;;6.28;5.68;;;18.60;99.90;;;;;;5084818;28;20742;-78
2022/11/10 09:45:25;;;;;;;4.50;4.10;;;19.60;99.90;;;;;;5069566;28;20571;-74
2022/11/10 09:47:56;;;;;;;4.82;4.30;;;20.40;99.90;;;;;;5085459;28;20222;-76
2022/11/10 09:50:49;;;;;;;5.53;4.15;;;20.60;99.90;;;;;;5082078;28;20198;-75
2022/11/10 09:53:20;;;;;;;5.03;3.92;;;21.40;99.90;;;;;;5080553;28;20670;-75
2022/11/10 09:55:49;;;;;;;4.57;4.18;;;21.80;99.90;;;;;;5082173;28;20633;-75
2022/11/10 09:58:17;;;;;;;4.20;3.40;;;21.60;99.90;;;;;;5079828;28;20253;-75
2022/11/10 10:00:52;;;;;;;4.05;3.65;;;21.40;99.90;;;;;;5074866;28;20710;-76
2022/11/10 10:03:23;;;;;;;3.78;3.47;;;21.20;99.90;;;;;;5076622;28;20183;-75
2022/11/10 10:06:11;;;;;;;3.42;3.22;;;21.70;99.90;;;;;;5084964;28;20608;-75
2022/11/10 10:08:36;;;;;;;5.68;3.28;;;22.60;99.90;;;;;;5081208;28;20673;-75
2022/11/10 10:11:30;;;;;;;3.78;3.00;;;23.40;97.70;;;;;;5074939;28;20187;-75
2022/11/10 10:14:02;;;;;;;4.10;3.72;;;23.70;98.10;;;;;;5080521;28;20745;-76
2022/11/10 10:16:27;;;;;;;3.25;2.35;;;24.60;94.90;;;;;;5080708;28;20183;-77
2022/11/10 10:19:06;;;;;;;6.57;2.78;;;25.70;91.50;;;;;;5083987;28;20674;-78
2022/11/10 10:21:44;;;;;;;2.75;2.55;;;26.80;90.00;;;;;;5058647;28;20190;-78
2022/11/10 10:24:16;;;;;;;3.67;2.40;;;26.80;86.50;;;;;;5069509;28;20748;-78
2022/11/10 10:27:03;;;;;;;4.53;2.28;;;26.20;82.40;;;;;;5069713;28;20186;-77
2022/11/10 10:29:39;;;;;;;2.45;2.22;;;25.10;84.60;;;;;;5070494;28;20234;-77
2022/11/10 10:32:11;;;;;;;3.55;2.08;;;24.20;87.90;;;;;;5073380;28;20174;-77
2022/11/10 10:34:36;;;;;;;2.13;2.00;;;23.40;90.60;;;;;;5064166;28;20177;-77
2022/11/10 10:37:02;;;;;;;7.20;2.30;;;22.80;92.30;;;;;;5069390;28;20207;-77
2022/11/10 10:39:35;;;;;;;4.03;2.63;;;21.90;92.30;;;;;;5068353;28;20171;-75
2022/11/10 10:42:01;;;;;;;4.30;2.50;;;20.90;94.10;;;;;;5083296;28;20178;-75
2022/11/10 10:44:26;;;;;;;3.72;2.10;;;20.30;97.30;;;;;;5076411;28;20560;-75
2022/11/10 10:46:57;;;;;;;2.63;2.03;;;19.90;99.10;;;;;;5079182;28;20199;-75
2022/11/10 10:49:32;;;;;;;3.58;2.40;;;19.50;99.70;;;;;;5076469;28;20286;-75
2022/11/10 10:52:05;;;;;;;2.40;1.90;;;19.00;99.90;;;;;;5080880;28;20541;-75
2022/11/10 10:54:34;;;;;;;4.28;2.17;;;18.50;99.90;;;;;;5077291;28;20175;-75
2022/11/10 10:57:04;;;;;;;1.80;1.70;;;17.80;99.90;;;;;;5085482;28;20207;-75
2022/11/10 10:59:31;;;;;;;5.00;2.08;;;17.30;99.90;;;;;;5071523;28;20696;-75
2022/11/10 11:01:57;;;;;;;6.20;2.28;;;16.90;99.90;;;;;;5082157;28;20207;-76
2022/11/10 11:04:36;;;;;;;4.00;2.00;;;16.50;99.90;;;;;;5081304;28;20625;-75
2022/11/10 11:07:20;;;;;;;3.15;2.10;;;17.40;99.90;;;;;;5070085;28;20210;-76
2022/11/10 11:09:45;;;;;;;2.60;1.92;;;19.80;99.90;;;;;;5073794;28;20566;-75
2022/11/10 11:12:19;;;;;;;2.65;1.85;;;20.50;99.90;;;;;;5076391;28;20184;-76
2022/11/10 11:14:44;;;;;;;2.30;1.42;;;22.30;96.50;;;;;;5070202;28;20186;-75
2022/11/10 11:17:20;;;;;;;2.17;1.50;;;23.00;93.00;;;;;;5077667;28;20203;-76
2022/11/10 11:19:46;;;;;;;2.03;1.60;;;24.80;91.60;;;;;;5086441;28;20632;-77
2022/11/10 11:22:55;;;;;;;2.95;1.73;;;26.90;81.80;;;;;;5073702;28;20192;-78
2022/11/10 11:25:33;;;;;;;1.58;1.42;;;27.90;77.30;;;;;;5081217;28;20205;-78
2022/11/10 11:28:04;;;;;;;2.47;1.20;;;27.00;73.10;;;;;;5081440;28;20194;-77
2022/11/10 11:31:00;;;;;;;4.97;1.67;;;26.10;75.70;;;;;;5064634;28;20546;-78
2022/11/10 11:33:38;;;;;;;2.55;1.50;;;26.30;71.70;;;;;;5077308;28;20311;-81
2022/11/10 11:36:22;;;;;;;2.17;1.50;;;25.40;73.90;;;;;;5068163;28;20183;-75
2022/11/10 11:38:52;;;;;;;2.28;1.63;;;26.20;72.20;;;;;;5064422;28;20214;-76
2022/11/10 11:41:24;;;;;;;2.65;1.17;;;28.20;67.30;;;;;;5066840;28;20194;-74
2022/11/10 11:44:15;;;;;;;1.55;1.30;;;29.60;60.30;;;;;;5072710;28;20188;-73
2022/11/10 11:47:17;;;;;;;1.33;1.10;;;30.80;61.80;;;;;;5053582;28;20282;-73
2022/11/10 11:50:14;;;;;;;1.83;1.10;;;32.50;54.10;;;;;;5065978;28;20206;-73
2022/11/10 11:52:58;;;;;;;1.80;1.10;;;33.10;54.80;;;;;;5063820;28;20170;-73
2022/11/10 11:55:33;;;;;;;1.33;1.20;;;33.90;54.00;;;;;;5070605;28;20162;-73
2022/11/10 11:58:01;;;;;;;1.80;1.30;;;34.20;51.90;;;;;;5069585;28;20205;-73
2022/11/10 12:00:33;;;;;;;2.58;1.27;;;34.50;52.20;;;;;;5062701;28;20183;-73
2022/11/10 12:03:23;;;;;;;1.00;1.00;;;35.00;49.70;;;;;;5065516;28;20269;-73
2022/11/10 12:06:06;;;;;;;1.23;1.05;;;34.20;47.90;;;;;;5068243;28;20185;-75
2022/11/10 12:08:47;;;;;;;4.18;1.20;;;33.10;50.20;;;;;;5064944;28;20191;-75
2022/11/10 12:11:30;;;;;;;2.05;1.00;;;32.50;50.40;;;;;;5058405;28;20678;-75
2022/11/10 12:14:47;;;;;;;2.42;1.20;;;31.60;52.00;;;;;;5064819;28;21744;-75
2022/11/10 12:17:19;;;;;;;3.65;1.10;;;30.90;51.90;;;;;;5066624;28;20554;-75
2022/11/10 12:20:33;;;;;;;2.90;1.35;;;29.70;52.90;;;;;;5056287;28;20219;-75
2022/11/10 12:23:21;;;;;;;1.17;1.13;;;27.50;56.50;;;;;;5082622;28;20184;-75
2022/11/10 12:26:10;;;;;;;1.38;0.82;;;25.30;60.70;;;;;;5065420;28;20205;-76
2022/11/10 12:28:54;;;;;;;3.88;1.80;;;24.10;64.00;;;;;;5053061;28;20227;-75
2022/11/10 12:31:23;;;;;;;1.98;1.30;;;25.10;65.60;;;;;;5067583;28;20258;-76
2022/11/10 12:33:52;;;;;;;2.15;1.40;;;26.80;60.70;;;;;;5065811;28;20187;-76
2022/11/10 12:36:21;;;;;;;4.25;1.45;;;27.40;60.00;;;;;;5068934;28;20184;-75
2022/11/10 12:38:55;;;;;;;2.15;1.00;;;27.90;57.60;;;;;;5065165;28;20199;-75
2022/11/10 12:41:22;;;;;;;1.25;1.15;;;27.90;58.20;;;;;;5057811;28;20213;-75
2022/11/10 12:44:11;;;;;;;2.65;1.35;;;27.90;57.00;;;;;;5061653;28;20609;-75
2022/11/10 12:46:40;;;;;;;3.15;1.27;;;27.60;58.20;;;;;;5068072;28;20269;-75
2022/11/10 12:49:29;;;;;;;1.42;1.20;;;27.70;58.70;;;;;;5074723;28;20206;-73
2022/11/10 12:52:13;;;;;;;2.50;1.30;;;27.90;57.30;;;;;;5070709;28;20159;-73
2022/11/10 12:54:41;;;;;;;2.30;1.60;;;27.50;56.10;;;;;;5074176;28;20198;-73
2022/11/10 12:57:27;;;;;;;5.13;1.95;;;26.90;58.90;;;;;;5075601;28;20186;-73
2022/11/10 13:00:01;;;;;;;4.07;1.80;;;27.20;59.10;;;;;;5074805;28;20244;-75
2022/11/10 13:02:35;;;;;;;2.55;1.52;;;27.50;58.20;;;;;;5066513;28;20183;-75
2022/11/10 13:05:13;;;;;;;1.98;1.45;;;27.30;57.00;;;;;;5072691;28;20236;-75
2022/11/10 13:07:43;;;;;;;2.75;1.73;;;26.60;56.60;;;;;;5068541;28;20624;-75
2022/11/10 13:10:17;;;;;;;2.60;1.33;;;26.00;58.60;;;;;;5067311;28;20191;-75